Time;durP1;ratioP1;P1;durP2;ratioP2;P2;SDS_P1;SDS_P2;PMS_P1;PMS_P2;Temp;Humidity;BMP_temperature;BMP_pressure;BME280_temperature;BME280_humidity;BME280_pressure;Samples;Min_cycle;Max_cycle;Signal;HPM_P1;HPM_P2
2022/06/17 00:02:09;;;;;;;;;;;;;;;15.91;82.68;95533.22;5076594;28;976;-50
2022/06/17 00:04:35;;;;;;;;;;;;;;;15.91;82.42;95531.34;5076148;28;1125;-50
2022/06/17 00:07:05;;;;;;;;;;;;;;;15.84;82.98;95530.44;5090397;28;1154;-50
2022/06/17 00:09:32;;;;;;;;;;;;;;;15.84;82.96;95529.59;5096805;28;1019;-50
2022/06/17 00:11:58;;;;;;;;;;;;;;;15.78;82.50;95528.47;5096687;28;1913;-50
2022/06/17 00:14:26;;;;;;;;;;;;;;;15.72;82.66;95531.88;5096407;28;953;-50
2022/06/17 00:16:52;;;;;;;;;;;;;;;15.79;82.17;95524.75;5096583;28;1210;-50
2022/06/17 00:19:18;;;;;;;;;;;;;;;15.70;81.72;95531.22;5096362;28;1041;-50
2022/06/17 00:21:47;;;;;;;;;;;;;;;15.40;82.84;95532.00;5096325;28;1125;-50
2022/06/17 00:24:16;;;;;;;;;;;;;;;15.35;83.52;95534.41;5095867;28;1025;-50
2022/06/17 00:26:42;;;;;;;;;;;;;;;15.47;82.71;95532.09;5096143;28;1119;-50
2022/06/17 00:29:16;;;;;;;;;;;;;;;15.36;83.01;95529.84;5096105;28;1104;-50
2022/06/17 00:31:42;;;;;;;;;;;;;;;15.28;83.29;95524.53;5096185;28;1988;-50
2022/06/17 00:34:08;;;;;;;;;;;;;;;15.36;83.40;95519.06;5096067;28;962;-50
2022/06/17 00:36:34;;;;;;;;;;;;;;;15.40;82.76;95520.38;5095864;28;2003;-50
2022/06/17 00:39:01;;;;;;;;;;;;;;;15.26;82.66;95519.31;5096302;28;1029;-50
2022/06/17 00:41:27;;;;;;;;;;;;;;;15.10;83.40;95524.81;5095813;28;1309;-50
2022/06/17 00:43:54;;;;;;;;;;;;;;;15.04;83.75;95521.00;5096112;28;1022;-50
2022/06/17 00:46:23;;;;;;;;;;;;;;;15.08;83.52;95516.94;5095880;28;1050;-50
2022/06/17 00:49:09;;;;;;;;;;;;;;;15.05;83.94;95513.78;5095944;28;987;-50
2022/06/17 00:51:38;;;;;;;;;;;;;;;15.03;83.89;95511.25;5081289;28;1910;-50
2022/06/17 00:54:14;;;;;;;;;;;;;;;15.07;83.77;95517.13;5095727;28;1008;-50
2022/06/17 00:56:40;;;;;;;;;;;;;;;15.14;83.16;95512.66;5095618;28;958;-50
2022/06/17 00:59:08;;;;;;;;;;;;;;;15.11;83.94;95515.75;5095737;28;1028;-50
2022/06/17 01:01:43;;;;;;;;;;;;;;;15.02;84.06;95514.94;5095361;28;1028;-50
2022/06/17 01:04:10;;;;;;;;;;;;;;;15.03;83.88;95514.78;5095830;28;1063;-50
2022/06/17 01:06:40;;;;;;;;;;;;;;;15.22;82.69;95513.44;5084781;28;1217;-50
2022/06/17 01:11:56;;;;;;;;;;;;;;;14.97;83.92;95510.13;5075041;28;1914;-50
2022/06/17 01:14:23;;;;;;;;;;;;;;;14.95;83.41;95512.16;5074973;28;1032;-50
2022/06/17 01:16:49;;;;;;;;;;;;;;;15.05;82.29;95500.31;5074896;28;1076;-50
2022/06/17 01:19:35;;;;;;;;;;;;;;;14.84;83.33;95501.81;5074996;28;1025;-50
2022/06/17 01:22:04;;;;;;;;;;;;;;;14.83;83.84;95502.81;5057612;28;2167;-50
2022/06/17 01:24:31;;;;;;;;;;;;;;;14.86;83.61;95512.41;5074639;28;1061;-50
2022/06/17 01:26:57;;;;;;;;;;;;;;;14.75;83.10;95503.69;5074596;28;1120;-50
2022/06/17 01:29:23;;;;;;;;;;;;;;;14.51;84.34;95512.72;5074756;28;1891;-50
2022/06/17 01:31:51;;;;;;;;;;;;;;;14.68;83.93;95518.88;5074692;28;1913;-49
2022/06/17 01:34:18;;;;;;;;;;;;;;;14.90;83.16;95503.75;5074701;28;1881;-50
2022/06/17 01:36:45;;;;;;;;;;;;;;;14.97;83.59;95507.41;5074484;28;965;-50
2022/06/17 01:39:13;;;;;;;;;;;;;;;15.00;83.14;95504.34;5074692;28;969;-49
2022/06/17 01:41:41;;;;;;;;;;;;;;;15.04;82.20;95499.44;5074150;28;1259;-50
2022/06/17 01:44:09;;;;;;;;;;;;;;;14.96;82.66;95503.03;5074945;28;1020;-50
2022/06/17 01:46:36;;;;;;;;;;;;;;;14.88;82.99;95494.22;5074564;28;963;-49
2022/06/17 01:49:04;;;;;;;;;;;;;;;14.72;82.79;95508.59;5074542;28;1017;-50
2022/06/17 01:51:32;;;;;;;;;;;;;;;14.47;83.86;95503.31;5074087;28;1914;-50
2022/06/17 01:54:02;;;;;;;;;;;;;;;14.36;83.99;95493.81;5074073;28;973;-50
2022/06/17 01:56:30;;;;;;;;;;;;;;;14.32;84.10;95491.63;5074507;28;966;-49
2022/06/17 01:59:05;;;;;;;;;;;;;;;14.27;84.60;95502.09;5074428;28;1061;-49
2022/06/17 02:01:32;;;;;;;;;;;;;;;14.35;84.33;95499.38;5074071;28;1044;-49
2022/06/17 02:04:02;;;;;;;;;;;;;;;14.38;84.34;95493.63;5074235;28;982;-49
2022/06/17 02:06:34;;;;;;;;;;;;;;;14.31;84.52;95496.19;5083073;28;1158;-49
2022/06/17 02:09:00;;;;;;;;;;;;;;;14.22;85.09;95491.88;5094573;28;962;-50
2022/06/17 02:11:26;;;;;;;;;;;;;;;14.30;84.93;95499.88;5094102;28;1914;-50
2022/06/17 02:13:52;;;;;;;;;;;;;;;14.30;84.18;95499.88;5094364;28;1040;-49
2022/06/17 02:16:19;;;;;;;;;;;;;;;14.23;84.55;95502.44;5094139;28;961;-49
2022/06/17 02:18:45;;;;;;;;;;;;;;;14.30;84.32;95502.56;5094121;28;1040;-49
2022/06/17 02:21:18;;;;;;;;;;;;;;;14.26;84.26;95498.56;5093669;28;1037;-50
2022/06/17 02:23:44;;;;;;;;;;;;;;;14.18;84.84;95501.28;5094504;28;1047;-49
2022/06/17 02:26:11;;;;;;;;;;;;;;;14.15;84.72;95493.56;5094033;28;994;-50
2022/06/17 02:28:38;;;;;;;;;;;;;;;14.12;84.98;95497.44;5094029;28;1135;-50
2022/06/17 02:31:05;;;;;;;;;;;;;;;14.05;85.22;95515.28;5093848;28;2001;-50
2022/06/17 02:33:31;;;;;;;;;;;;;;;14.04;85.16;95508.25;5093760;28;1087;-50
2022/06/17 02:36:03;;;;;;;;;;;;;;;13.99;85.58;95505.25;5093825;28;1054;-50
2022/06/17 02:38:30;;;;;;;;;;;;;;;13.89;85.99;95508.13;5094019;28;983;-50
2022/06/17 02:40:59;;;;;;;;;;;;;;;14.01;85.67;95512.09;5094008;28;1046;-50
2022/06/17 02:43:28;;;;;;;;;;;;;;;14.00;85.16;95514.97;5093357;28;1251;-50
2022/06/17 02:45:58;;;;;;;;;;;;;;;13.84;85.96;95522.06;5093699;28;1095;-49
2022/06/17 02:48:26;;;;;;;;;;;;;;;13.79;85.75;95512.84;5093335;28;1040;-49
2022/06/17 02:50:54;;;;;;;;;;;;;;;13.82;85.67;95523.25;5093857;28;1011;-50
2022/06/17 02:53:23;;;;;;;;;;;;;;;13.99;85.58;95511.44;5093555;28;1984;-50
2022/06/17 02:55:50;;;;;;;;;;;;;;;14.02;85.57;95519.19;5093590;28;1205;-50
2022/06/17 02:58:28;;;;;;;;;;;;;;;13.95;84.57;95520.03;5093365;28;1037;-50
2022/06/17 03:00:56;;;;;;;;;;;;;;;13.90;84.47;95519.72;5093515;28;1121;-50
2022/06/17 03:03:22;;;;;;;;;;;;;;;13.85;84.65;95515.69;5093100;28;1061;-50
2022/06/17 03:05:48;;;;;;;;;;;;;;;14.01;84.09;95522.03;5089815;28;1150;-49
2022/06/17 03:08:20;;;;;;;;;;;;;;;13.96;84.11;95519.00;5073194;28;973;-49
2022/06/17 03:10:46;;;;;;;;;;;;;;;13.73;85.39;95517.06;5073112;28;1112;-50
2022/06/17 03:13:16;;;;;;;;;;;;;;;13.71;86.35;95512.88;5072970;28;1996;-50
2022/06/17 03:15:43;;;;;;;;;;;;;;;13.89;85.75;95520.72;5073084;28;1044;-50
2022/06/17 03:18:10;;;;;;;;;;;;;;;14.00;85.53;95523.88;5072971;28;1117;-50
2022/06/17 03:20:37;;;;;;;;;;;;;;;14.19;85.07;95524.47;5073002;28;1065;-50
2022/06/17 03:23:26;;;;;;;;;;;;;;;14.24;84.77;95528.31;5073050;28;1024;-50
2022/06/17 03:25:57;;;;;;;;;;;;;;;14.25;84.91;95521.09;5060128;28;1698;-50
2022/06/17 03:28:32;;;;;;;;;;;;;;;14.03;84.33;95517.31;5072760;28;1886;-49
2022/06/17 03:31:02;;;;;;;;;;;;;;;13.88;85.71;95530.63;5073236;28;963;-50
2022/06/17 03:33:35;;;;;;;;;;;;;;;13.93;86.64;95532.81;5076141;28;1917;-50
2022/06/17 03:36:06;;;;;;;;;;;;;;;14.08;85.33;95525.72;5077058;28;1029;-50
2022/06/17 03:38:36;;;;;;;;;;;;;;;14.05;85.44;95531.41;5076679;28;1041;-50
2022/06/17 03:41:05;;;;;;;;;;;;;;;14.03;86.18;95530.75;5076846;28;1238;-49
2022/06/17 03:43:37;;;;;;;;;;;;;;;14.20;86.66;95528.84;5076380;28;1275;-50
2022/06/17 03:46:05;;;;;;;;;;;;;;;14.43;85.75;95542.38;5076771;28;1057;-50
2022/06/17 03:48:45;;;;;;;;;;;;;;;14.71;85.16;95539.22;5076495;28;978;-50
2022/06/17 03:51:16;;;;;;;;;;;;;;;14.96;84.54;95550.69;5077096;28;1901;-50
2022/06/17 03:53:43;;;;;;;;;;;;;;;15.09;84.05;95553.63;5076196;28;1088;-50
2022/06/17 03:56:09;;;;;;;;;;;;;;;15.23;84.02;95552.84;5076746;28;980;-49
2022/06/17 03:58:36;;;;;;;;;;;;;;;15.24;84.77;95559.06;5076390;28;1041;-49
2022/06/17 04:01:10;;;;;;;;;;;;;;;15.11;84.76;95554.28;5076531;28;962;-50
2022/06/17 04:03:39;;;;;;;;;;;;;;;15.19;84.66;95546.13;5076131;28;1062;-49
2022/06/17 04:06:09;;;;;;;;;;;;;;;15.37;83.60;95553.91;5082763;28;1162;-50
2022/06/17 04:08:50;;;;;;;;;;;;;;;15.60;83.08;95561.13;5096546;28;972;-49
2022/06/17 04:11:16;;;;;;;;;;;;;;;15.81;81.79;95563.97;5096653;28;1992;-50
2022/06/17 04:13:42;;;;;;;;;;;;;;;15.85;83.72;95561.75;5096377;28;972;-50
2022/06/17 04:16:18;;;;;;;;;;;;;;;15.86;80.98;95557.19;5096409;28;1826;-50
2022/06/17 04:18:44;;;;;;;;;;;;;;;15.97;82.49;95554.06;5096422;28;1143;-50
2022/06/17 04:21:12;;;;;;;;;;;;;;;16.10;81.86;95556.09;5096560;28;967;-50
2022/06/17 04:23:38;;;;;;;;;;;;;;;16.23;82.38;95555.47;5095786;28;1029;-50
2022/06/17 04:26:13;;;;;;;;;;;;;;;16.39;81.06;95566.06;5096768;28;1013;-50
2022/06/17 04:28:48;;;;;;;;;;;;;;;16.48;80.59;95553.31;5096028;28;1006;-50
2022/06/17 04:31:16;;;;;;;;;;;;;;;16.66;80.70;95552.91;5096340;28;1996;-50
2022/06/17 04:33:45;;;;;;;;;;;;;;;16.78;80.20;95551.38;5096031;28;968;-50
2022/06/17 04:36:11;;;;;;;;;;;;;;;16.86;78.65;95547.78;5096202;28;974;-50
2022/06/17 04:38:57;;;;;;;;;;;;;;;16.86;78.97;95554.00;5095918;28;1040;-51
2022/06/17 04:41:26;;;;;;;;;;;;;;;17.03;77.27;95553.78;5095714;28;1133;-50
2022/06/17 04:43:54;;;;;;;;;;;;;;;17.17;76.87;95550.19;5094417;28;1065;-50
2022/06/17 04:46:34;;;;;;;;;;;;;;;17.22;77.30;95552.31;5096078;28;966;-50
2022/06/17 04:49:00;;;;;;;;;;;;;;;17.10;76.51;95550.13;5095746;28;1981;-50
2022/06/17 04:51:28;;;;;;;;;;;;;;;17.01;75.80;95548.56;5095700;28;1983;-49
2022/06/17 04:53:54;;;;;;;;;;;;;;;17.20;77.61;95547.09;5095351;28;1119;-49
2022/06/17 04:56:28;;;;;;;;;;;;;;;17.37;76.00;95548.50;5095986;28;1068;-50
2022/06/17 04:58:54;;;;;;;;;;;;;;;17.53;77.58;95550.13;5095676;28;969;-50
2022/06/17 05:01:21;;;;;;;;;;;;;;;17.70;76.74;95550.69;5095781;28;962;-50
2022/06/17 05:03:47;;;;;;;;;;;;;;;17.90;77.14;95540.03;5095394;28;1875;-49
2022/06/17 05:06:13;;;;;;;;;;;;;;;18.01;76.41;95545.94;5088182;28;1146;-49
2022/06/17 05:08:44;;;;;;;;;;;;;;;18.32;75.78;95549.03;5075019;28;1847;-50
2022/06/17 05:11:10;;;;;;;;;;;;;;;18.28;75.09;95547.75;5075496;28;1906;-50
2022/06/17 05:13:40;;;;;;;;;;;;;;;18.27;75.63;95556.09;5075172;28;1004;-51
2022/06/17 05:16:12;;;;;;;;;;;;;;;18.43;73.94;95555.75;5074990;28;1053;-49
2022/06/17 05:18:38;;;;;;;;;;;;;;;18.63;74.68;95546.88;5074971;28;1971;-49
2022/06/17 05:21:07;;;;;;;;;;;;;;;18.63;73.05;95549.59;5074746;28;1882;-50
2022/06/17 05:23:33;;;;;;;;;;;;;;;18.70;73.31;95547.75;5074883;28;1045;-49
2022/06/17 05:25:59;;;;;;;;;;;;;;;18.80;73.95;95544.66;5074897;28;974;-51
2022/06/17 05:28:26;;;;;;;;;;;;;;;18.87;73.94;95545.56;5074885;28;986;-49
2022/06/17 05:30:53;;;;;;;;;;;;;;;18.86;73.41;95544.72;5074603;28;1049;-51
2022/06/17 05:33:20;;;;;;;;;;;;;;;18.94;74.00;95549.13;5074636;28;1914;-50
2022/06/17 05:35:47;;;;;;;;;;;;;;;19.06;73.56;95550.19;5074357;28;1100;-50
2022/06/17 05:38:13;;;;;;;;;;;;;;;19.16;72.60;95538.13;5074864;28;965;-50
2022/06/17 05:40:40;;;;;;;;;;;;;;;19.13;72.06;95549.41;5074298;28;1044;-50
2022/06/17 05:43:06;;;;;;;;;;;;;;;18.82;73.97;95546.19;5074379;28;1211;-50
2022/06/17 05:45:33;;;;;;;;;;;;;;;18.91;73.05;95536.00;5074319;28;996;-51
2022/06/17 05:47:59;;;;;;;;;;;;;;;19.08;73.87;95529.19;5074382;28;1041;-50
2022/06/17 05:50:26;;;;;;;;;;;;;;;19.35;72.35;95528.38;5074083;28;954;-50
2022/06/17 05:52:52;;;;;;;;;;;;;;;19.54;71.43;95532.13;5074229;28;1983;-50
2022/06/17 05:55:19;;;;;;;;;;;;;;;19.66;69.98;95528.59;5073659;28;971;-50
2022/06/17 05:57:45;;;;;;;;;;;;;;;19.66;70.07;95533.22;5074303;28;1025;-50
2022/06/17 06:00:12;;;;;;;;;;;;;;;19.72;70.28;95526.97;5074078;28;1005;-50
2022/06/17 06:02:39;;;;;;;;;;;;;;;19.85;71.86;95526.13;5074124;28;1036;-50
2022/06/17 06:05:05;;;;;;;;;;;;;;;20.07;71.24;95529.44;5056073;28;1034;-51
2022/06/17 06:07:31;;;;;;;;;;;;;;;20.20;70.89;95528.59;5092307;28;1166;-50
2022/06/17 06:09:57;;;;;;;;;;;;;;;20.27;70.58;95530.22;5094150;28;1856;-50
2022/06/17 06:12:53;;;;;;;;;;;;;;;20.30;71.76;95526.28;5094205;28;2001;-50
2022/06/17 06:15:10;;;;;;;;;;;;;;;20.25;69.78;95520.66;5093946;28;1625;-50
2022/06/17 06:17:36;;;;;;;;;;;;;;;19.94;73.38;95524.03;5094088;28;1013;-50
2022/06/17 06:20:02;;;;;;;;;;;;;;;20.02;71.34;95519.22;5094213;28;1063;-50
2022/06/17 06:22:28;;;;;;;;;;;;;;;20.45;70.71;95526.84;5094167;28;1033;-50
2022/06/17 06:24:54;;;;;;;;;;;;;;;20.57;69.39;95535.16;5093910;28;1041;-50
2022/06/17 06:27:20;;;;;;;;;;;;;;;20.51;68.36;95524.31;5094049;28;1236;-50
2022/06/17 06:29:46;;;;;;;;;;;;;;;20.59;70.91;95522.22;5094351;28;1939;-50
2022/06/17 06:32:12;;;;;;;;;;;;;;;20.50;70.51;95523.50;5093646;28;1960;-50
2022/06/17 06:34:38;;;;;;;;;;;;;;;20.58;70.91;95522.41;5093777;28;1012;-51
2022/06/17 06:37:04;;;;;;;;;;;;;;;20.85;70.38;95518.56;5093864;28;968;-50
2022/06/17 06:39:31;;;;;;;;;;;;;;;21.26;67.11;95516.47;5093701;28;1127;-50
2022/06/17 06:45:24;;;;;;;;;;;;;;;21.72;66.89;95512.63;3137603;28;2269;-51
2022/06/17 06:47:50;;;;;;;;;;;;;;;21.86;67.53;95518.78;5093800;28;1057;-50
2022/06/17 06:50:18;;;;;;;;;;;;;;;21.73;66.37;95513.44;5093678;28;1021;-50
2022/06/17 06:52:45;;;;;;;;;;;;;;;21.86;66.83;95507.88;5093410;28;1909;-50
2022/06/17 06:55:12;;;;;;;;;;;;;;;21.74;65.74;95506.94;5093411;28;1114;-50
2022/06/17 06:57:45;;;;;;;;;;;;;;;21.61;66.18;95507.88;5093523;28;1037;-50
2022/06/17 07:00:13;;;;;;;;;;;;;;;21.75;65.35;95504.00;5093759;28;961;-50
2022/06/17 07:02:39;;;;;;;;;;;;;;;21.82;64.91;95501.22;5093369;28;976;-50
2022/06/17 07:05:05;;;;;;;;;;;;;;;22.03;65.47;95499.97;5093590;28;958;-50
2022/06/17 07:07:31;;;;;;;;;;;;;;;22.20;66.61;95498.34;5074249;28;1225;-50
2022/06/17 07:09:57;;;;;;;;;;;;;;;22.30;63.11;95499.75;5073467;28;1047;-50
2022/06/17 07:12:23;;;;;;;;;;;;;;;22.31;66.00;95498.66;5072749;28;1902;-50
2022/06/17 07:14:48;;;;;;;;;;;;;;;22.44;65.84;95498.50;5073339;28;1045;-50
2022/06/17 07:17:15;;;;;;;;;;;;;;;22.57;65.35;95501.09;5073133;28;1053;-50
2022/06/17 07:19:41;;;;;;;;;;;;;;;22.66;64.72;95493.44;5073168;28;1030;-51
2022/06/17 07:22:07;;;;;;;;;;;;;;;22.75;63.67;95496.69;5072962;28;947;-51
2022/06/17 07:24:33;;;;;;;;;;;;;;;22.96;63.46;95492.66;5072745;28;1081;-51
2022/06/17 07:26:59;;;;;;;;;;;;;;;22.96;60.67;95490.75;5073119;28;1108;-51
2022/06/17 07:29:25;;;;;;;;;;;;;;;23.04;61.07;95494.25;5073114;28;1064;-51
2022/06/17 07:31:51;;;;;;;;;;;;;;;23.24;63.41;95480.31;5072938;28;1910;-49
2022/06/17 07:34:17;;;;;;;;;;;;;;;23.14;61.09;95484.44;5073097;28;1017;-50
2022/06/17 07:42:12;;;;;;;;;;;;;;;23.16;59.54;95476.88;5072902;28;1020;-50
2022/06/17 07:44:38;;;;;;;;;;;;;;;23.45;58.97;95473.50;5072955;28;992;-50
2022/06/17 07:47:04;;;;;;;;;;;;;;;23.58;59.39;95474.13;5072591;28;1173;-51
2022/06/17 07:49:30;;;;;;;;;;;;;;;23.85;60.49;95476.44;5072692;28;954;-50
2022/06/17 07:51:56;;;;;;;;;;;;;;;23.78;60.73;95473.81;5072853;28;1981;-50
2022/06/17 07:54:22;;;;;;;;;;;;;;;23.84;59.28;95468.47;5072707;28;1055;-50
2022/06/17 07:56:48;;;;;;;;;;;;;;;24.15;60.26;95472.78;5072639;28;1065;-50
2022/06/17 07:59:14;;;;;;;;;;;;;;;24.20;58.62;95470.13;5072911;28;1056;-52
2022/06/17 08:01:40;;;;;;;;;;;;;;;24.33;60.41;95469.06;5072558;28;1046;-51
2022/06/17 08:04:06;;;;;;;;;;;;;;;24.40;60.01;95474.38;5072685;28;993;-50
2022/06/17 08:06:32;;;;;;;;;;;;;;;24.39;59.52;95467.28;5082658;28;1166;-51
2022/06/17 08:08:59;;;;;;;;;;;;;;;24.42;60.66;95459.41;5093024;28;1087;-49
2022/06/17 08:11:25;;;;;;;;;;;;;;;24.53;59.44;95457.78;5092703;28;1918;-51
2022/06/17 08:13:51;;;;;;;;;;;;;;;24.61;60.74;95462.03;5092873;28;919;-50
2022/06/17 08:16:17;;;;;;;;;;;;;;;24.61;60.09;95459.31;5092927;28;973;-50
2022/06/17 08:18:43;;;;;;;;;;;;;;;24.82;56.77;95449.59;5094480;28;1096;-50
2022/06/17 08:21:10;;;;;;;;;;;;;;;25.02;56.43;95460.91;5096707;28;982;-50
2022/06/17 08:23:35;;;;;;;;;;;;;;;25.00;57.40;95443.91;5096185;28;1009;-50
2022/06/17 08:26:02;;;;;;;;;;;;;;;25.05;57.22;95446.75;5096501;28;1175;-50
2022/06/17 08:28:28;;;;;;;;;;;;;;;25.11;57.78;95437.56;5096212;28;1039;-50
2022/06/17 08:30:55;;;;;;;;;;;;;;;25.23;57.58;95439.44;5096143;28;1008;-50
2022/06/17 08:33:28;;;;;;;;;;;;;;;25.31;58.55;95437.16;5095890;28;1906;-50
2022/06/17 08:35:56;;;;;;;;;;;;;;;25.39;57.69;95437.81;5096387;28;1178;-50
2022/06/17 08:38:25;;;;;;;;;;;;;;;25.44;57.71;95436.00;5095995;28;1028;-50
2022/06/17 08:40:54;;;;;;;;;;;;;;;25.47;58.19;95435.50;5096013;28;1045;-50
2022/06/17 08:43:20;;;;;;;;;;;;;;;25.54;58.23;95429.88;5095928;28;1032;-50
2022/06/17 08:46:05;;;;;;;;;;;;;;;25.47;54.95;95427.28;5095600;28;1080;-51
2022/06/17 08:48:38;;;;;;;;;;;;;;;25.48;55.69;95418.00;5095821;28;1035;-50
2022/06/17 08:51:22;;;;;;;;;;;;;;;25.70;56.35;95426.28;5096033;28;1036;-50
2022/06/17 08:53:54;;;;;;;;;;;;;;;25.62;55.75;95417.66;5095498;28;1056;-50
2022/06/17 08:56:32;;;;;;;;;;;;;;;25.53;55.04;95422.72;5095708;28;1016;-50
2022/06/17 08:59:14;;;;;;;;;;;;;;;25.58;54.44;95416.50;5095521;28;1096;-50
2022/06/17 09:01:42;;;;;;;;;;;;;;;25.78;55.65;95419.56;5095396;28;1167;-49
2022/06/17 09:04:20;;;;;;;;;;;;;;;25.86;53.87;95419.16;5095366;28;1864;-53
2022/06/17 09:06:55;;;;;;;;;;;;;;;25.86;55.03;95424.63;5083500;28;1190;-51
2022/06/17 09:09:21;;;;;;;;;;;;;;;25.82;54.26;95415.25;5075074;28;1092;-51
2022/06/17 09:11:56;;;;;;;;;;;;;;;25.83;52.38;95419.63;5075576;28;1988;-51
2022/06/17 09:14:35;;;;;;;;;;;;;;;25.85;54.19;95422.13;5075015;28;1053;-51
2022/06/17 09:17:01;;;;;;;;;;;;;;;26.07;55.28;95416.75;5075122;28;1102;-50
2022/06/17 09:19:33;;;;;;;;;;;;;;;26.03;50.16;95412.84;5074710;28;1046;-51
2022/06/17 09:22:17;;;;;;;;;;;;;;;26.09;53.60;95409.09;5075243;28;970;-50
2022/06/17 09:24:44;;;;;;;;;;;;;;;26.24;54.15;95411.22;5074616;28;1032;-50
2022/06/17 09:27:20;;;;;;;;;;;;;;;26.26;50.10;95406.31;5074910;28;1245;-50
2022/06/17 09:30:02;;;;;;;;;;;;;;;26.35;49.59;95395.72;5073824;28;1848;-50
2022/06/17 09:32:33;;;;;;;;;;;;;;;26.43;49.39;95398.03;5074619;28;1902;-51
2022/06/17 09:35:05;;;;;;;;;;;;;;;26.36;50.67;95403.69;5074740;28;977;-51
2022/06/17 09:37:47;;;;;;;;;;;;;;;26.30;52.32;95394.56;5074654;28;1021;-51
2022/06/17 09:40:27;;;;;;;;;;;;;;;26.41;51.83;95402.94;5074486;28;1004;-50
2022/06/17 09:43:01;;;;;;;;;;;;;;;26.59;50.62;95396.28;5074819;28;1000;-51
2022/06/17 09:45:39;;;;;;;;;;;;;;;26.57;50.26;95387.50;5074230;28;1231;-50
2022/06/17 09:48:13;;;;;;;;;;;;;;;26.56;48.09;95394.91;5074505;28;959;-49
2022/06/17 09:50:48;;;;;;;;;;;;;;;26.45;46.54;95395.88;5074317;28;1005;-49
2022/06/17 09:53:14;;;;;;;;;;;;;;;26.48;45.46;95385.22;5074415;28;1996;-50
2022/06/17 09:56:01;;;;;;;;;;;;;;;26.60;44.30;95384.28;5074167;28;1061;-51
2022/06/17 09:58:39;;;;;;;;;;;;;;;26.68;45.16;95381.91;5074040;28;1020;-50
2022/06/17 10:01:07;;;;;;;;;;;;;;;26.73;45.29;95381.16;5074152;28;961;-50
2022/06/17 10:03:34;;;;;;;;;;;;;;;26.85;47.99;95372.75;5073948;28;1095;-50
2022/06/17 10:06:19;;;;;;;;;;;;;;;26.91;47.76;95365.41;5079526;28;1158;-50
2022/06/17 10:08:53;;;;;;;;;;;;;;;26.96;46.89;95369.03;5094291;28;1099;-50
2022/06/17 10:11:25;;;;;;;;;;;;;;;27.02;47.33;95376.22;5094456;28;938;-49
2022/06/17 10:14:14;;;;;;;;;;;;;;;27.00;43.68;95374.84;5094092;28;1931;-50
2022/06/17 10:19:44;;;;;;;;;;;;;;;26.98;44.10;95374.28;5094090;28;1159;-50
2022/06/17 10:22:16;;;;;;;;;;;;;;;27.12;45.05;95370.00;5094132;28;990;-50
2022/06/17 10:24:56;;;;;;;;;;;;;;;27.25;44.47;95363.28;5093610;28;1084;-50
2022/06/17 10:27:41;;;;;;;;;;;;;;;27.38;44.83;95368.34;5094177;28;1052;-51
2022/06/17 10:30:16;;;;;;;;;;;;;;;27.49;45.62;95369.28;5094361;28;988;-50
2022/06/17 10:32:47;;;;;;;;;;;;;;;27.58;46.04;95375.09;5094035;28;2071;-50
2022/06/17 10:35:16;;;;;;;;;;;;;;;27.66;46.20;95371.88;5093982;28;1010;-50
2022/06/17 10:37:42;;;;;;;;;;;;;;;27.80;44.96;95375.78;5093943;28;1048;-50
2022/06/17 10:40:09;;;;;;;;;;;;;;;27.99;44.12;95376.22;5093804;28;980;-50
2022/06/17 10:42:35;;;;;;;;;;;;;;;27.79;45.13;95373.31;5093663;28;1025;-50
2022/06/17 10:45:02;;;;;;;;;;;;;;;27.41;44.31;95377.97;5093557;28;1012;-51
2022/06/17 10:47:28;;;;;;;;;;;;;;;27.30;44.51;95374.31;5093894;28;1072;-51
2022/06/17 10:49:57;;;;;;;;;;;;;;;27.27;45.92;95383.06;5093701;28;1019;-50
2022/06/17 10:52:32;;;;;;;;;;;;;;;27.06;45.30;95380.09;5093622;28;1906;-51
2022/06/17 10:54:59;;;;;;;;;;;;;;;26.88;47.02;95383.19;5093457;28;1043;-50
2022/06/17 10:57:26;;;;;;;;;;;;;;;26.69;45.65;95385.47;5093516;28;953;-50
2022/06/17 10:59:52;;;;;;;;;;;;;;;26.52;47.65;95381.94;5075501;28;1902;-50
2022/06/17 11:02:24;;;;;;;;;;;;;;;26.34;48.76;95388.59;5093537;28;1005;-51
2022/06/17 11:04:55;;;;;;;;;;;;;;;26.23;49.04;95380.22;5093489;28;1028;-50
2022/06/17 11:07:48;;;;;;;;;;;;;;;26.16;47.24;95384.22;5076903;28;1357;-50
2022/06/17 11:10:14;;;;;;;;;;;;;;;26.05;48.21;95386.84;5073058;28;1041;-51
2022/06/17 11:12:53;;;;;;;;;;;;;;;25.92;49.36;95387.22;5073211;28;1902;-50
2022/06/17 11:15:18;;;;;;;;;;;;;;;25.86;49.37;95388.19;5073062;28;1068;-50
2022/06/17 11:17:46;;;;;;;;;;;;;;;25.83;48.73;95384.03;5073102;28;1005;-50
2022/06/17 11:20:15;;;;;;;;;;;;;;;25.77;48.60;95387.78;5073051;28;1056;-50
2022/06/17 11:22:49;;;;;;;;;;;;;;;25.61;48.78;95389.47;5073021;28;1001;-50
2022/06/17 11:25:30;;;;;;;;;;;;;;;25.48;48.89;95387.06;5072743;28;1029;-50
2022/06/17 11:28:10;;;;;;;;;;;;;;;25.37;48.83;95382.50;5073057;28;1312;-50
2022/06/17 11:30:48;;;;;;;;;;;;;;;25.29;48.94;95381.00;5072919;28;946;-50
2022/06/17 11:33:22;;;;;;;;;;;;;;;25.31;48.63;95376.13;5072933;28;1984;-50
2022/06/17 11:35:56;;;;;;;;;;;;;;;25.38;49.68;95381.41;5072854;28;1835;-50
2022/06/17 11:38:24;;;;;;;;;;;;;;;25.64;49.26;95388.13;5073080;28;1004;-50
2022/06/17 11:40:52;;;;;;;;;;;;;;;25.60;48.14;95384.25;5072893;28;1043;-50
2022/06/17 11:43:28;;;;;;;;;;;;;;;25.70;47.60;95373.44;5073024;28;1008;-50
2022/06/17 11:45:54;;;;;;;;;;;;;;;25.83;47.16;95362.13;5072780;28;1234;-50
2022/06/17 11:48:21;;;;;;;;;;;;;;;26.19;47.04;95356.34;5073099;28;1014;-50
2022/06/17 11:51:22;;;;;;;;;;;;;;;26.39;46.84;95353.84;5072847;28;1090;-51
2022/06/17 11:53:52;;;;;;;;;;;;;;;26.76;46.22;95341.41;4973832;28;1976;-51
2022/06/17 11:56:35;;;;;;;;;;;;;;;26.99;44.05;95335.56;5059213;28;1078;-50
2022/06/17 11:59:07;;;;;;;;;;;;;;;27.22;45.39;95333.59;5076835;28;1024;-50
2022/06/17 12:01:34;;;;;;;;;;;;;;;27.36;44.92;95329.34;5076286;28;1033;-51
2022/06/17 12:04:00;;;;;;;;;;;;;;;27.40;43.91;95324.97;5076581;28;956;-50
2022/06/17 12:06:31;;;;;;;;;;;;;;;27.51;43.81;95327.78;5085178;28;1169;-49
2022/06/17 12:09:00;;;;;;;;;;;;;;;27.65;43.95;95327.06;5096909;28;945;-49
2022/06/17 12:11:32;;;;;;;;;;;;;;;27.75;44.66;95326.31;5096520;28;1913;-49
2022/06/17 12:13:59;;;;;;;;;;;;;;;27.86;45.84;95324.47;5096665;28;1044;-49
2022/06/17 12:16:39;;;;;;;;;;;;;;;27.91;45.49;95324.53;5096346;28;1891;-49
2022/06/17 12:19:09;;;;;;;;;;;;;;;27.99;44.51;95321.25;5096468;28;978;-50
2022/06/17 12:21:38;;;;;;;;;;;;;;;27.88;43.86;95315.94;5096427;28;974;-49
2022/06/17 12:24:23;;;;;;;;;;;;;;;27.82;43.74;95315.09;5096429;28;995;-49
2022/06/17 12:27:03;;;;;;;;;;;;;;;27.59;44.55;95310.84;5096323;28;1045;-48
2022/06/17 12:29:41;;;;;;;;;;;;;;;27.65;44.92;95315.28;5096223;28;1194;-49
2022/06/17 12:32:07;;;;;;;;;;;;;;;27.82;43.47;95312.34;5096391;28;1996;-51
2022/06/17 12:34:37;;;;;;;;;;;;;;;27.99;44.80;95314.94;5096292;28;1044;-49
2022/06/17 12:37:26;;;;;;;;;;;;;;;27.98;42.70;95307.78;5096429;28;1037;-48
2022/06/17 12:39:57;;;;;;;;;;;;;;;27.45;44.68;95300.31;5058406;28;1292;-49
2022/06/17 12:42:32;;;;;;;;;;;;;;;26.92;44.87;95299.31;5078077;28;1044;-50
2022/06/17 12:44:58;;;;;;;;;;;;;;;27.12;42.39;95298.66;5096263;28;1030;-50
2022/06/17 12:47:30;;;;;;;;;;;;;;;27.39;44.26;95295.84;5095599;28;1941;-49
2022/06/17 12:53:14;;;;;;;;;;;;;;;27.53;42.06;95296.25;5095895;28;1972;-50
2022/06/17 12:55:46;;;;;;;;;;;;;;;27.27;42.80;95300.72;5095561;28;933;-49
2022/06/17 12:58:20;;;;;;;;;;;;;;;27.12;43.92;95298.66;5095686;28;968;-48
2022/06/17 13:00:51;;;;;;;;;;;;;;;26.99;45.18;95290.84;5095618;28;1021;-48
2022/06/17 13:03:17;;;;;;;;;;;;;;;26.79;45.50;95295.09;5095763;28;972;-49
2022/06/17 13:05:45;;;;;;;;;;;;;;;26.58;46.16;95296.75;5091412;28;1209;-49
2022/06/17 13:08:26;;;;;;;;;;;;;;;26.48;46.24;95294.75;5075147;28;970;-49
2022/06/17 13:10:52;;;;;;;;;;;;;;;26.54;46.16;95290.16;5075402;28;1057;-49
2022/06/17 13:13:18;;;;;;;;;;;;;;;26.74;45.73;95291.47;5074981;28;1987;-49
2022/06/17 13:15:46;;;;;;;;;;;;;;;26.87;45.19;95293.78;5075026;28;1048;-49
2022/06/17 13:18:19;;;;;;;;;;;;;;;26.92;46.04;95291.09;5075192;28;1037;-49
2022/06/17 13:20:53;;;;;;;;;;;;;;;26.96;46.58;95300.44;5075068;28;1041;-49
2022/06/17 13:23:37;;;;;;;;;;;;;;;26.87;46.45;95296.53;5074987;28;966;-49
2022/06/17 13:26:10;;;;;;;;;;;;;;;26.48;47.90;95294.75;5074887;28;1029;-49
2022/06/17 13:28:51;;;;;;;;;;;;;;;26.25;47.84;95304.06;5074908;28;1004;-49
2022/06/17 13:31:24;;;;;;;;;;;;;;;26.07;50.13;95301.66;5074841;28;1047;-49
2022/06/17 13:33:53;;;;;;;;;;;;;;;25.96;51.52;95300.69;5074662;28;1901;-49